sensor_id;sensor_type;location;lat;lon;timestamp;temperature;humidity
7784;DHT22;19359;51.402;6.778;2024-03-02T00:00:49;8.00;1.00
7784;DHT22;19359;51.402;6.778;2024-03-02T00:03:15;8.00;1.00
7784;DHT22;19359;51.402;6.778;2024-03-02T00:05:42;8.00;1.00
7784;DHT22;19359;51.402;6.778;2024-03-02T00:08:10;8.00;1.00
7784;DHT22;19359;51.402;6.778;2024-03-02T00:10:38;8.00;1.00
7784;DHT22;19359;51.402;6.778;2024-03-02T00:13:06;8.00;1.00
7784;DHT22;19359;51.402;6.778;2024-03-02T00:15:41;7.90;1.00
7784;DHT22;19359;51.402;6.778;2024-03-02T00:18:10;8.00;1.00
7784;DHT22;19359;51.402;6.778;2024-03-02T00:20:38;8.00;1.00
7784;DHT22;19359;51.402;6.778;2024-03-02T00:23:06;8.10;1.00
7784;DHT22;19359;51.402;6.778;2024-03-02T00:25:39;8.10;1.00
7784;DHT22;19359;51.402;6.778;2024-03-02T00:28:13;8.20;1.00
7784;DHT22;19359;51.402;6.778;2024-03-02T00:30:52;8.20;1.00
7784;DHT22;19359;51.402;6.778;2024-03-02T00:33:21;8.30;1.00
7784;DHT22;19359;51.402;6.778;2024-03-02T00:35:49;8.30;1.00
7784;DHT22;19359;51.402;6.778;2024-03-02T00:38:16;8.20;1.00
7784;DHT22;19359;51.402;6.778;2024-03-02T00:40:45;8.40;1.00
7784;DHT22;19359;51.402;6.778;2024-03-02T00:43:37;8.30;1.00
7784;DHT22;19359;51.402;6.778;2024-03-02T00:46:05;8.30;1.00
7784;DHT22;19359;51.402;6.778;2024-03-02T00:48:33;8.50;1.00
7784;DHT22;19359;51.402;6.778;2024-03-02T00:51:01;8.40;1.00
7784;DHT22;19359;51.402;6.778;2024-03-02T00:53:29;8.40;1.00
7784;DHT22;19359;51.402;6.778;2024-03-02T00:55:59;8.50;1.00
7784;DHT22;19359;51.402;6.778;2024-03-02T00:58:26;8.50;1.00
7784;DHT22;19359;51.402;6.778;2024-03-02T01:00:52;8.50;1.00
7784;DHT22;19359;51.402;6.778;2024-03-02T01:03:19;8.50;1.00
7784;DHT22;19359;51.402;6.778;2024-03-02T01:05:46;8.60;1.00
7784;DHT22;19359;51.402;6.778;2024-03-02T01:08:13;8.50;1.00
7784;DHT22;19359;51.402;6.778;2024-03-02T01:10:40;8.50;1.00
7784;DHT22;19359;51.402;6.778;2024-03-02T01:13:08;8.50;1.00
7784;DHT22;19359;51.402;6.778;2024-03-02T01:15:35;8.50;1.00
7784;DHT22;19359;51.402;6.778;2024-03-02T01:20:29;8.40;1.00
7784;DHT22;19359;51.402;6.778;2024-03-02T01:22:56;8.40;1.00
7784;DHT22;19359;51.402;6.778;2024-03-02T01:25:22;8.40;1.00
7784;DHT22;19359;51.402;6.778;2024-03-02T01:27:50;8.40;1.00
7784;DHT22;19359;51.402;6.778;2024-03-02T01:30:18;8.40;1.00
7784;DHT22;19359;51.402;6.778;2024-03-02T01:32:45;8.30;1.00
7784;DHT22;19359;51.402;6.778;2024-03-02T01:35:11;8.30;1.00
7784;DHT22;19359;51.402;6.778;2024-03-02T01:37:38;8.20;1.00
7784;DHT22;19359;51.402;6.778;2024-03-02T01:40:06;8.20;1.00
7784;DHT22;19359;51.402;6.778;2024-03-02T01:42:35;8.20;1.00
7784;DHT22;19359;51.402;6.778;2024-03-02T01:45:03;8.20;1.00
7784;DHT22;19359;51.402;6.778;2024-03-02T01:47:31;8.20;1.00
7784;DHT22;19359;51.402;6.778;2024-03-02T01:49:59;8.20;1.00
7784;DHT22;19359;51.402;6.778;2024-03-02T01:52:27;8.20;1.00
7784;DHT22;19359;51.402;6.778;2024-03-02T01:54:53;8.20;1.00
7784;DHT22;19359;51.402;6.778;2024-03-02T01:57:20;8.20;1.00
7784;DHT22;19359;51.402;6.778;2024-03-02T02:02:16;8.30;1.00
7784;DHT22;19359;51.402;6.778;2024-03-02T02:04:44;8.30;1.00
7784;DHT22;19359;51.402;6.778;2024-03-02T02:07:11;8.40;1.00
7784;DHT22;19359;51.402;6.778;2024-03-02T02:12:07;8.50;1.00
7784;DHT22;19359;51.402;6.778;2024-03-02T02:14:33;8.50;1.00
7784;DHT22;19359;51.402;6.778;2024-03-02T02:17:00;8.70;1.00
7784;DHT22;19359;51.402;6.778;2024-03-02T02:19:27;8.70;1.00
7784;DHT22;19359;51.402;6.778;2024-03-02T02:21:55;8.70;1.00
7784;DHT22;19359;51.402;6.778;2024-03-02T02:24:22;8.70;1.00
7784;DHT22;19359;51.402;6.778;2024-03-02T02:26:48;8.70;1.00
7784;DHT22;19359;51.402;6.778;2024-03-02T02:29:15;8.70;1.00
7784;DHT22;19359;51.402;6.778;2024-03-02T02:31:43;8.80;1.00
7784;DHT22;19359;51.402;6.778;2024-03-02T02:34:09;8.80;1.00
7784;DHT22;19359;51.402;6.778;2024-03-02T02:36:38;9.00;1.00
7784;DHT22;19359;51.402;6.778;2024-03-02T02:39:09;8.90;1.00
7784;DHT22;19359;51.402;6.778;2024-03-02T02:41:37;8.90;1.00
7784;DHT22;19359;51.402;6.778;2024-03-02T02:44:04;8.90;1.00
7784;DHT22;19359;51.402;6.778;2024-03-02T02:46:31;8.90;1.00
7784;DHT22;19359;51.402;6.778;2024-03-02T02:48:57;8.90;1.00
7784;DHT22;19359;51.402;6.778;2024-03-02T02:51:24;8.90;1.00
7784;DHT22;19359;51.402;6.778;2024-03-02T02:53:52;8.90;1.00
7784;DHT22;19359;51.402;6.778;2024-03-02T02:56:20;8.90;1.00
7784;DHT22;19359;51.402;6.778;2024-03-02T02:58:46;8.80;1.00
7784;DHT22;19359;51.402;6.778;2024-03-02T03:01:14;8.70;1.00
7784;DHT22;19359;51.402;6.778;2024-03-02T03:03:42;8.70;1.00
7784;DHT22;19359;51.402;6.778;2024-03-02T03:06:09;8.80;1.00
7784;DHT22;19359;51.402;6.778;2024-03-02T03:08:36;8.70;1.00
7784;DHT22;19359;51.402;6.778;2024-03-02T03:11:03;8.70;1.00
7784;DHT22;19359;51.402;6.778;2024-03-02T03:13:31;8.70;1.00
7784;DHT22;19359;51.402;6.778;2024-03-02T03:15:58;8.80;1.00
7784;DHT22;19359;51.402;6.778;2024-03-02T03:18:25;8.70;1.00
7784;DHT22;19359;51.402;6.778;2024-03-02T03:20:51;8.80;1.00
7784;DHT22;19359;51.402;6.778;2024-03-02T03:23:17;8.60;1.00
7784;DHT22;19359;51.402;6.778;2024-03-02T03:25:44;8.70;1.00
7784;DHT22;19359;51.402;6.778;2024-03-02T03:28:11;8.70;1.00
7784;DHT22;19359;51.402;6.778;2024-03-02T03:30:39;8.70;1.00
7784;DHT22;19359;51.402;6.778;2024-03-02T03:33:06;8.60;1.00
7784;DHT22;19359;51.402;6.778;2024-03-02T03:35:33;8.70;1.00
7784;DHT22;19359;51.402;6.778;2024-03-02T03:38:00;8.60;1.00
7784;DHT22;19359;51.402;6.778;2024-03-02T03:40:27;8.60;1.00
7784;DHT22;19359;51.402;6.778;2024-03-02T03:42:53;8.50;1.00
7784;DHT22;19359;51.402;6.778;2024-03-02T03:45:22;8.50;1.00
7784;DHT22;19359;51.402;6.778;2024-03-02T03:47:53;8.50;1.00
7784;DHT22;19359;51.402;6.778;2024-03-02T03:50:19;8.50;1.00
7784;DHT22;19359;51.402;6.778;2024-03-02T03:52:46;8.50;1.00
7784;DHT22;19359;51.402;6.778;2024-03-02T03:55:13;8.40;1.00
7784;DHT22;19359;51.402;6.778;2024-03-02T03:57:40;8.40;1.00
7784;DHT22;19359;51.402;6.778;2024-03-02T04:00:08;8.20;1.00
7784;DHT22;19359;51.402;6.778;2024-03-02T04:02:36;8.30;1.00
7784;DHT22;19359;51.402;6.778;2024-03-02T04:05:05;8.10;1.00
7784;DHT22;19359;51.402;6.778;2024-03-02T04:07:35;8.10;1.00
7784;DHT22;19359;51.402;6.778;2024-03-02T04:10:07;8.00;1.00
7784;DHT22;19359;51.402;6.778;2024-03-02T04:12:35;8.00;1.00
7784;DHT22;19359;51.402;6.778;2024-03-02T04:15:02;7.90;1.00
7784;DHT22;19359;51.402;6.778;2024-03-02T04:17:31;7.80;1.00
7784;DHT22;19359;51.402;6.778;2024-03-02T04:19:58;7.80;1.00
7784;DHT22;19359;51.402;6.778;2024-03-02T04:22:26;7.70;1.00
7784;DHT22;19359;51.402;6.778;2024-03-02T04:24:53;7.70;1.00
7784;DHT22;19359;51.402;6.778;2024-03-02T04:27:20;7.60;1.00
7784;DHT22;19359;51.402;6.778;2024-03-02T04:29:47;7.50;1.00
7784;DHT22;19359;51.402;6.778;2024-03-02T04:34:40;7.30;1.00
7784;DHT22;19359;51.402;6.778;2024-03-02T04:37:08;7.30;1.00
7784;DHT22;19359;51.402;6.778;2024-03-02T04:39:36;7.30;1.00
7784;DHT22;19359;51.402;6.778;2024-03-02T04:42:03;7.20;1.00
7784;DHT22;19359;51.402;6.778;2024-03-02T04:44:30;7.20;1.00
7784;DHT22;19359;51.402;6.778;2024-03-02T04:46:56;7.30;1.00
7784;DHT22;19359;51.402;6.778;2024-03-02T04:49:23;7.30;1.00
7784;DHT22;19359;51.402;6.778;2024-03-02T04:51:50;7.30;1.00
7784;DHT22;19359;51.402;6.778;2024-03-02T04:54:17;7.30;1.00
7784;DHT22;19359;51.402;6.778;2024-03-02T04:56:45;7.30;1.00
7784;DHT22;19359;51.402;6.778;2024-03-02T05:04:10;7.50;1.00
7784;DHT22;19359;51.402;6.778;2024-03-02T05:06:37;7.50;1.00
7784;DHT22;19359;51.402;6.778;2024-03-02T05:09:05;7.30;1.00
7784;DHT22;19359;51.402;6.778;2024-03-02T05:11:32;7.20;1.00
7784;DHT22;19359;51.402;6.778;2024-03-02T05:14:20;7.10;1.00
7784;DHT22;19359;51.402;6.778;2024-03-02T05:16:46;7.10;1.00
7784;DHT22;19359;51.402;6.778;2024-03-02T05:19:13;7.00;1.00
7784;DHT22;19359;51.402;6.778;2024-03-02T05:21:39;7.00;1.00
7784;DHT22;19359;51.402;6.778;2024-03-02T05:24:06;7.00;1.00
7784;DHT22;19359;51.402;6.778;2024-03-02T05:26:33;7.00;1.00
7784;DHT22;19359;51.402;6.778;2024-03-02T05:29:00;7.00;1.00
7784;DHT22;19359;51.402;6.778;2024-03-02T05:31:28;6.90;1.00
7784;DHT22;19359;51.402;6.778;2024-03-02T05:33:55;6.90;1.00
7784;DHT22;19359;51.402;6.778;2024-03-02T05:36:21;6.90;1.00
7784;DHT22;19359;51.402;6.778;2024-03-02T05:41:15;6.90;1.00
7784;DHT22;19359;51.402;6.778;2024-03-02T05:43:42;6.90;1.00
7784;DHT22;19359;51.402;6.778;2024-03-02T05:46:08;6.90;1.00
7784;DHT22;19359;51.402;6.778;2024-03-02T05:48:37;6.90;1.00
7784;DHT22;19359;51.402;6.778;2024-03-02T05:51:04;6.80;1.00
7784;DHT22;19359;51.402;6.778;2024-03-02T05:53:30;6.80;1.00
7784;DHT22;19359;51.402;6.778;2024-03-02T05:55:57;6.80;1.00
7784;DHT22;19359;51.402;6.778;2024-03-02T05:58:24;6.70;1.00
7784;DHT22;19359;51.402;6.778;2024-03-02T06:03:30;6.60;1.00
7784;DHT22;19359;51.402;6.778;2024-03-02T06:05:58;6.60;1.00
7784;DHT22;19359;51.402;6.778;2024-03-02T06:08:25;6.50;1.00
7784;DHT22;19359;51.402;6.778;2024-03-02T06:10:52;6.50;1.00
7784;DHT22;19359;51.402;6.778;2024-03-02T06:13:19;6.60;1.00
7784;DHT22;19359;51.402;6.778;2024-03-02T06:18:12;6.70;1.00
7784;DHT22;19359;51.402;6.778;2024-03-02T06:20:39;6.70;1.00
7784;DHT22;19359;51.402;6.778;2024-03-02T06:23:07;6.70;1.00
7784;DHT22;19359;51.402;6.778;2024-03-02T06:25:34;6.70;1.00
7784;DHT22;19359;51.402;6.778;2024-03-02T06:28:01;6.60;1.00
7784;DHT22;19359;51.402;6.778;2024-03-02T06:30:29;6.60;1.00
7784;DHT22;19359;51.402;6.778;2024-03-02T06:32:56;6.60;1.00
7784;DHT22;19359;51.402;6.778;2024-03-02T06:35:23;6.80;1.00
7784;DHT22;19359;51.402;6.778;2024-03-02T06:37:49;6.60;1.00
7784;DHT22;19359;51.402;6.778;2024-03-02T06:40:18;6.60;1.00
7784;DHT22;19359;51.402;6.778;2024-03-02T06:42:44;6.70;1.00
7784;DHT22;19359;51.402;6.778;2024-03-02T06:45:11;6.70;1.00
7784;DHT22;19359;51.402;6.778;2024-03-02T06:47:38;6.70;1.00
7784;DHT22;19359;51.402;6.778;2024-03-02T06:50:05;6.80;1.00
7784;DHT22;19359;51.402;6.778;2024-03-02T06:52:32;6.80;1.00
7784;DHT22;19359;51.402;6.778;2024-03-02T06:54:59;6.80;1.00
7784;DHT22;19359;51.402;6.778;2024-03-02T06:57:27;6.80;1.00
7784;DHT22;19359;51.402;6.778;2024-03-02T06:59:54;6.90;1.00
7784;DHT22;19359;51.402;6.778;2024-03-02T07:02:24;7.00;1.00
7784;DHT22;19359;51.402;6.778;2024-03-02T07:04:52;7.10;1.00
7784;DHT22;19359;51.402;6.778;2024-03-02T07:07:19;7.20;1.00
7784;DHT22;19359;51.402;6.778;2024-03-02T07:09:46;7.40;1.00
7784;DHT22;19359;51.402;6.778;2024-03-02T07:12:12;7.50;1.00
7784;DHT22;19359;51.402;6.778;2024-03-02T07:14:41;7.50;1.00
7784;DHT22;19359;51.402;6.778;2024-03-02T07:17:25;7.60;1.00
7784;DHT22;19359;51.402;6.778;2024-03-02T07:19:52;7.80;1.00
7784;DHT22;19359;51.402;6.778;2024-03-02T07:22:19;7.80;1.00
7784;DHT22;19359;51.402;6.778;2024-03-02T07:24:45;7.80;1.00
7784;DHT22;19359;51.402;6.778;2024-03-02T07:27:13;7.80;1.00
7784;DHT22;19359;51.402;6.778;2024-03-02T07:29:41;7.70;1.00
7784;DHT22;19359;51.402;6.778;2024-03-02T07:32:09;7.70;1.00
7784;DHT22;19359;51.402;6.778;2024-03-02T07:34:36;7.70;1.00
7784;DHT22;19359;51.402;6.778;2024-03-02T07:37:03;7.70;1.00
7784;DHT22;19359;51.402;6.778;2024-03-02T07:39:30;7.80;1.00
7784;DHT22;19359;51.402;6.778;2024-03-02T07:41:57;8.00;1.00
7784;DHT22;19359;51.402;6.778;2024-03-02T07:44:24;8.10;1.00
7784;DHT22;19359;51.402;6.778;2024-03-02T07:46:52;8.20;1.00
7784;DHT22;19359;51.402;6.778;2024-03-02T07:49:18;8.20;1.00
7784;DHT22;19359;51.402;6.778;2024-03-02T07:51:45;8.30;1.00
7784;DHT22;19359;51.402;6.778;2024-03-02T07:56:39;8.60;1.00
7784;DHT22;19359;51.402;6.778;2024-03-02T07:59:06;8.70;1.00
7784;DHT22;19359;51.402;6.778;2024-03-02T08:01:33;8.70;1.00
7784;DHT22;19359;51.402;6.778;2024-03-02T08:04:01;8.70;1.00
7784;DHT22;19359;51.402;6.778;2024-03-02T08:06:29;8.60;1.00
7784;DHT22;19359;51.402;6.778;2024-03-02T08:08:57;8.60;1.00
7784;DHT22;19359;51.402;6.778;2024-03-02T08:11:24;8.60;1.00
7784;DHT22;19359;51.402;6.778;2024-03-02T08:13:52;8.60;1.00
7784;DHT22;19359;51.402;6.778;2024-03-02T08:16:20;8.60;1.00
7784;DHT22;19359;51.402;6.778;2024-03-02T08:18:48;8.60;1.00
7784;DHT22;19359;51.402;6.778;2024-03-02T08:21:16;8.90;1.00
7784;DHT22;19359;51.402;6.778;2024-03-02T08:23:43;9.00;1.00
7784;DHT22;19359;51.402;6.778;2024-03-02T08:26:10;9.20;1.00
7784;DHT22;19359;51.402;6.778;2024-03-02T08:28:37;9.40;1.00
7784;DHT22;19359;51.402;6.778;2024-03-02T08:31:06;9.50;1.00
7784;DHT22;19359;51.402;6.778;2024-03-02T08:36:00;9.50;1.00
7784;DHT22;19359;51.402;6.778;2024-03-02T08:38:28;9.50;1.00
7784;DHT22;19359;51.402;6.778;2024-03-02T08:40:55;9.60;1.00
7784;DHT22;19359;51.402;6.778;2024-03-02T08:43:22;9.70;1.00
7784;DHT22;19359;51.402;6.778;2024-03-02T08:45:49;9.70;1.00
7784;DHT22;19359;51.402;6.778;2024-03-02T08:48:16;9.80;1.00
7784;DHT22;19359;51.402;6.778;2024-03-02T08:50:43;9.80;1.00
7784;DHT22;19359;51.402;6.778;2024-03-02T08:53:10;9.80;1.00
7784;DHT22;19359;51.402;6.778;2024-03-02T08:55:38;9.80;1.00
7784;DHT22;19359;51.402;6.778;2024-03-02T08:58:04;9.90;1.00
7784;DHT22;19359;51.402;6.778;2024-03-02T09:00:31;9.80;1.00
7784;DHT22;19359;51.402;6.778;2024-03-02T09:02:58;9.90;1.00
7784;DHT22;19359;51.402;6.778;2024-03-02T09:05:24;10.00;1.00
7784;DHT22;19359;51.402;6.778;2024-03-02T09:07:51;10.10;1.00
7784;DHT22;19359;51.402;6.778;2024-03-02T09:10:18;10.20;1.00
7784;DHT22;19359;51.402;6.778;2024-03-02T09:12:46;10.20;1.00
7784;DHT22;19359;51.402;6.778;2024-03-02T09:15:13;10.30;1.00
7784;DHT22;19359;51.402;6.778;2024-03-02T09:17:39;10.40;1.00
7784;DHT22;19359;51.402;6.778;2024-03-02T09:20:07;10.40;1.00
7784;DHT22;19359;51.402;6.778;2024-03-02T09:22:34;10.40;1.00
7784;DHT22;19359;51.402;6.778;2024-03-02T09:25:00;10.60;1.00
7784;DHT22;19359;51.402;6.778;2024-03-02T09:27:27;10.60;1.00
7784;DHT22;19359;51.402;6.778;2024-03-02T09:29:55;10.70;1.00
7784;DHT22;19359;51.402;6.778;2024-03-02T09:32:22;10.70;1.00
7784;DHT22;19359;51.402;6.778;2024-03-02T09:34:49;10.80;1.00
7784;DHT22;19359;51.402;6.778;2024-03-02T09:37:15;10.80;1.00
7784;DHT22;19359;51.402;6.778;2024-03-02T09:39:43;10.80;1.00
7784;DHT22;19359;51.402;6.778;2024-03-02T09:42:10;10.90;1.00
7784;DHT22;19359;51.402;6.778;2024-03-02T09:44:38;10.90;1.00
7784;DHT22;19359;51.402;6.778;2024-03-02T09:47:07;10.90;1.00
7784;DHT22;19359;51.402;6.778;2024-03-02T09:49:34;11.00;1.00
7784;DHT22;19359;51.402;6.778;2024-03-02T09:52:03;11.00;1.00
7784;DHT22;19359;51.402;6.778;2024-03-02T09:54:30;11.00;1.00
7784;DHT22;19359;51.402;6.778;2024-03-02T09:56:57;11.00;1.00
7784;DHT22;19359;51.402;6.778;2024-03-02T09:59:24;11.10;1.00
7784;DHT22;19359;51.402;6.778;2024-03-02T10:01:58;11.30;1.00
7784;DHT22;19359;51.402;6.778;2024-03-02T10:04:28;11.30;1.00
7784;DHT22;19359;51.402;6.778;2024-03-02T10:07:14;11.40;1.00
7784;DHT22;19359;51.402;6.778;2024-03-02T10:09:42;11.40;1.00
7784;DHT22;19359;51.402;6.778;2024-03-02T10:12:10;11.40;1.00
7784;DHT22;19359;51.402;6.778;2024-03-02T10:14:38;11.40;1.00
7784;DHT22;19359;51.402;6.778;2024-03-02T10:17:06;11.40;1.00
7784;DHT22;19359;51.402;6.778;2024-03-02T10:19:35;11.40;1.00
7784;DHT22;19359;51.402;6.778;2024-03-02T10:22:03;12.20;1.00
7784;DHT22;19359;51.402;6.778;2024-03-02T10:24:36;11.50;1.00
7784;DHT22;19359;51.402;6.778;2024-03-02T10:27:07;11.40;1.00
7784;DHT22;19359;51.402;6.778;2024-03-02T10:29:37;11.40;1.00
7784;DHT22;19359;51.402;6.778;2024-03-02T10:32:05;11.50;1.00
7784;DHT22;19359;51.402;6.778;2024-03-02T10:34:32;11.70;1.00
7784;DHT22;19359;51.402;6.778;2024-03-02T10:37:00;11.70;1.00
7784;DHT22;19359;51.402;6.778;2024-03-02T10:39:28;11.80;1.00
7784;DHT22;19359;51.402;6.778;2024-03-02T10:41:55;11.70;1.00
7784;DHT22;19359;51.402;6.778;2024-03-02T10:44:23;11.90;1.00
7784;DHT22;19359;51.402;6.778;2024-03-02T10:46:50;11.80;1.00
7784;DHT22;19359;51.402;6.778;2024-03-02T10:49:19;11.90;1.00
7784;DHT22;19359;51.402;6.778;2024-03-02T10:51:47;12.00;1.00
7784;DHT22;19359;51.402;6.778;2024-03-02T10:54:15;12.10;1.00
7784;DHT22;19359;51.402;6.778;2024-03-02T10:56:44;12.10;1.00
7784;DHT22;19359;51.402;6.778;2024-03-02T10:59:17;12.10;1.00
7784;DHT22;19359;51.402;6.778;2024-03-02T11:01:48;12.10;1.00
7784;DHT22;19359;51.402;6.778;2024-03-02T11:04:16;12.20;1.00
7784;DHT22;19359;51.402;6.778;2024-03-02T11:06:48;12.20;1.00
7784;DHT22;19359;51.402;6.778;2024-03-02T11:09:19;12.20;1.00
7784;DHT22;19359;51.402;6.778;2024-03-02T11:11:52;12.20;1.00
7784;DHT22;19359;51.402;6.778;2024-03-02T11:14:24;12.30;1.00
7784;DHT22;19359;51.402;6.778;2024-03-02T11:16:51;12.30;1.00
7784;DHT22;19359;51.402;6.778;2024-03-02T11:19:19;12.40;1.00
7784;DHT22;19359;51.402;6.778;2024-03-02T11:21:47;12.40;1.00
7784;DHT22;19359;51.402;6.778;2024-03-02T11:24:32;12.40;1.00
7784;DHT22;19359;51.402;6.778;2024-03-02T11:26:59;12.40;1.00
7784;DHT22;19359;51.402;6.778;2024-03-02T11:29:45;12.30;1.00
7784;DHT22;19359;51.402;6.778;2024-03-02T11:32:17;12.40;1.00
7784;DHT22;19359;51.402;6.778;2024-03-02T11:34:45;12.40;1.00
7784;DHT22;19359;51.402;6.778;2024-03-02T11:37:13;12.40;1.00
7784;DHT22;19359;51.402;6.778;2024-03-02T11:39:43;12.30;1.00
7784;DHT22;19359;51.402;6.778;2024-03-02T11:42:11;12.40;1.00
7784;DHT22;19359;51.402;6.778;2024-03-02T11:44:40;12.50;1.00
7784;DHT22;19359;51.402;6.778;2024-03-02T11:47:11;12.50;1.00
7784;DHT22;19359;51.402;6.778;2024-03-02T11:49:40;12.60;1.00
7784;DHT22;19359;51.402;6.778;2024-03-02T11:52:08;12.70;1.00
7784;DHT22;19359;51.402;6.778;2024-03-02T11:54:37;12.80;1.00
7784;DHT22;19359;51.402;6.778;2024-03-02T11:57:07;13.00;1.00
7784;DHT22;19359;51.402;6.778;2024-03-02T11:59:34;13.00;1.00
7784;DHT22;19359;51.402;6.778;2024-03-02T12:02:01;13.00;1.00
7784;DHT22;19359;51.402;6.778;2024-03-02T12:04:29;13.10;1.00
7784;DHT22;19359;51.402;6.778;2024-03-02T12:06:57;13.20;1.00
7784;DHT22;19359;51.402;6.778;2024-03-02T12:09:26;13.30;1.00
7784;DHT22;19359;51.402;6.778;2024-03-02T12:12:07;13.30;1.00
7784;DHT22;19359;51.402;6.778;2024-03-02T12:14:35;13.40;1.00
7784;DHT22;19359;51.402;6.778;2024-03-02T12:17:03;13.40;1.00
7784;DHT22;19359;51.402;6.778;2024-03-02T12:21:57;13.40;1.00
7784;DHT22;19359;51.402;6.778;2024-03-02T12:24:24;13.40;1.00
7784;DHT22;19359;51.402;6.778;2024-03-02T12:26:51;13.40;1.00
7784;DHT22;19359;51.402;6.778;2024-03-02T12:29:20;13.50;1.00
7784;DHT22;19359;51.402;6.778;2024-03-02T12:31:48;13.50;1.00
7784;DHT22;19359;51.402;6.778;2024-03-02T12:34:16;13.50;1.00
7784;DHT22;19359;51.402;6.778;2024-03-02T12:36:44;13.60;1.00
7784;DHT22;19359;51.402;6.778;2024-03-02T12:41:41;13.70;1.00
7784;DHT22;19359;51.402;6.778;2024-03-02T12:44:08;13.80;1.00
7784;DHT22;19359;51.402;6.778;2024-03-02T12:46:36;14.00;1.00
7784;DHT22;19359;51.402;6.778;2024-03-02T12:49:08;14.10;1.00
7784;DHT22;19359;51.402;6.778;2024-03-02T12:51:36;14.10;1.00
7784;DHT22;19359;51.402;6.778;2024-03-02T12:54:03;14.20;1.00
7784;DHT22;19359;51.402;6.778;2024-03-02T12:56:31;14.10;1.00
7784;DHT22;19359;51.402;6.778;2024-03-02T12:58:59;14.20;1.00
7784;DHT22;19359;51.402;6.778;2024-03-02T13:01:26;14.20;1.00
7784;DHT22;19359;51.402;6.778;2024-03-02T13:03:54;14.10;1.00
7784;DHT22;19359;51.402;6.778;2024-03-02T13:06:22;14.10;1.00
7784;DHT22;19359;51.402;6.778;2024-03-02T13:08:50;14.00;1.00
7784;DHT22;19359;51.402;6.778;2024-03-02T13:11:17;13.90;1.00
7784;DHT22;19359;51.402;6.778;2024-03-02T13:13:43;13.80;1.00
7784;DHT22;19359;51.402;6.778;2024-03-02T13:16:11;13.70;1.00
7784;DHT22;19359;51.402;6.778;2024-03-02T13:18:39;13.70;1.00
7784;DHT22;19359;51.402;6.778;2024-03-02T13:21:07;13.60;1.00
7784;DHT22;19359;51.402;6.778;2024-03-02T13:23:34;13.70;1.00
7784;DHT22;19359;51.402;6.778;2024-03-02T13:26:01;13.60;1.00
7784;DHT22;19359;51.402;6.778;2024-03-02T13:28:28;13.90;1.00
7784;DHT22;19359;51.402;6.778;2024-03-02T13:30:55;14.00;1.00
7784;DHT22;19359;51.402;6.778;2024-03-02T13:33:22;14.20;1.00
7784;DHT22;19359;51.402;6.778;2024-03-02T13:38:18;14.10;1.00
7784;DHT22;19359;51.402;6.778;2024-03-02T13:40:45;13.90;1.00
7784;DHT22;19359;51.402;6.778;2024-03-02T13:43:12;13.80;1.00
7784;DHT22;19359;51.402;6.778;2024-03-02T13:48:07;13.60;1.00
7784;DHT22;19359;51.402;6.778;2024-03-02T13:55:29;13.90;1.00
7784;DHT22;19359;51.402;6.778;2024-03-02T13:57:57;13.90;1.00
7784;DHT22;19359;51.402;6.778;2024-03-02T14:00:23;13.90;1.00
7784;DHT22;19359;51.402;6.778;2024-03-02T14:02:50;14.10;1.00
7784;DHT22;19359;51.402;6.778;2024-03-02T14:05:17;14.20;1.00
7784;DHT22;19359;51.402;6.778;2024-03-02T14:07:44;14.50;1.00
7784;DHT22;19359;51.402;6.778;2024-03-02T14:12:41;14.50;1.00
7784;DHT22;19359;51.402;6.778;2024-03-02T14:15:08;14.30;1.00
7784;DHT22;19359;51.402;6.778;2024-03-02T14:17:34;14.20;1.00
7784;DHT22;19359;51.402;6.778;2024-03-02T14:20:01;14.10;1.00
7784;DHT22;19359;51.402;6.778;2024-03-02T14:22:30;14.00;1.00
7784;DHT22;19359;51.402;6.778;2024-03-02T14:24:57;14.00;1.00
7784;DHT22;19359;51.402;6.778;2024-03-02T14:27:23;14.00;1.00
7784;DHT22;19359;51.402;6.778;2024-03-02T14:29:52;14.00;1.00
7784;DHT22;19359;51.402;6.778;2024-03-02T14:32:19;14.00;1.00
7784;DHT22;19359;51.402;6.778;2024-03-02T14:37:13;14.20;1.00
7784;DHT22;19359;51.402;6.778;2024-03-02T14:39:40;14.30;1.00
7784;DHT22;19359;51.402;6.778;2024-03-02T14:42:06;14.50;1.00
7784;DHT22;19359;51.402;6.778;2024-03-02T14:44:33;14.40;1.00
7784;DHT22;19359;51.402;6.778;2024-03-02T14:47:02;14.30;1.00
7784;DHT22;19359;51.402;6.778;2024-03-02T14:49:29;14.20;1.00
7784;DHT22;19359;51.402;6.778;2024-03-02T14:51:56;14.10;1.00
7784;DHT22;19359;51.402;6.778;2024-03-02T14:54:23;14.00;1.00
7784;DHT22;19359;51.402;6.778;2024-03-02T14:56:50;14.00;1.00
7784;DHT22;19359;51.402;6.778;2024-03-02T14:59:17;14.10;1.00
7784;DHT22;19359;51.402;6.778;2024-03-02T15:01:44;14.20;1.00
7784;DHT22;19359;51.402;6.778;2024-03-02T15:04:12;14.20;1.00
7784;DHT22;19359;51.402;6.778;2024-03-02T15:09:06;14.60;1.00
7784;DHT22;19359;51.402;6.778;2024-03-02T15:11:33;14.90;1.00
7784;DHT22;19359;51.402;6.778;2024-03-02T15:14:00;15.10;1.00
7784;DHT22;19359;51.402;6.778;2024-03-02T15:16:27;15.10;1.00
7784;DHT22;19359;51.402;6.778;2024-03-02T15:18:54;15.90;1.00
7784;DHT22;19359;51.402;6.778;2024-03-02T15:21:22;16.20;1.00
7784;DHT22;19359;51.402;6.778;2024-03-02T15:23:49;16.70;1.00
7784;DHT22;19359;51.402;6.778;2024-03-02T15:26:16;16.60;1.00
7784;DHT22;19359;51.402;6.778;2024-03-02T15:28:42;16.50;1.00
7784;DHT22;19359;51.402;6.778;2024-03-02T15:31:09;15.50;1.00
7784;DHT22;19359;51.402;6.778;2024-03-02T15:33:36;15.30;1.00
7784;DHT22;19359;51.402;6.778;2024-03-02T15:36:04;15.10;1.00
7784;DHT22;19359;51.402;6.778;2024-03-02T15:38:32;15.00;1.00
7784;DHT22;19359;51.402;6.778;2024-03-02T15:41:02;15.00;1.00
7784;DHT22;19359;51.402;6.778;2024-03-02T15:43:29;14.90;1.00
7784;DHT22;19359;51.402;6.778;2024-03-02T15:45:57;14.70;1.00
7784;DHT22;19359;51.402;6.778;2024-03-02T15:48:24;14.80;1.00
7784;DHT22;19359;51.402;6.778;2024-03-02T15:50:50;14.80;1.00
7784;DHT22;19359;51.402;6.778;2024-03-02T15:53:18;14.90;1.00
7784;DHT22;19359;51.402;6.778;2024-03-02T15:55:46;14.70;1.00
7784;DHT22;19359;51.402;6.778;2024-03-02T15:58:13;14.50;1.00
7784;DHT22;19359;51.402;6.778;2024-03-02T16:00:39;14.50;1.00
7784;DHT22;19359;51.402;6.778;2024-03-02T16:03:06;14.40;1.00
7784;DHT22;19359;51.402;6.778;2024-03-02T16:05:33;14.40;1.00
7784;DHT22;19359;51.402;6.778;2024-03-02T16:08:00;14.30;1.00
7784;DHT22;19359;51.402;6.778;2024-03-02T16:10:27;14.00;1.00
7784;DHT22;19359;51.402;6.778;2024-03-02T16:12:55;13.90;1.00
7784;DHT22;19359;51.402;6.778;2024-03-02T16:15:25;13.80;1.00
7784;DHT22;19359;51.402;6.778;2024-03-02T16:17:52;13.80;1.00
7784;DHT22;19359;51.402;6.778;2024-03-02T16:20:19;13.80;1.00
7784;DHT22;19359;51.402;6.778;2024-03-02T16:22:46;13.70;1.00
7784;DHT22;19359;51.402;6.778;2024-03-02T16:25:12;13.70;1.00
7784;DHT22;19359;51.402;6.778;2024-03-02T16:27:40;13.70;1.00
7784;DHT22;19359;51.402;6.778;2024-03-02T16:30:09;13.70;1.00
7784;DHT22;19359;51.402;6.778;2024-03-02T16:32:36;13.70;1.00
7784;DHT22;19359;51.402;6.778;2024-03-02T16:35:03;13.60;1.00
7784;DHT22;19359;51.402;6.778;2024-03-02T16:37:30;13.50;1.00
7784;DHT22;19359;51.402;6.778;2024-03-02T16:39:58;13.50;1.00
7784;DHT22;19359;51.402;6.778;2024-03-02T16:42:24;13.50;1.00
7784;DHT22;19359;51.402;6.778;2024-03-02T16:44:51;13.50;1.00
7784;DHT22;19359;51.402;6.778;2024-03-02T16:47:21;13.40;1.00
7784;DHT22;19359;51.402;6.778;2024-03-02T16:49:48;13.40;1.00
7784;DHT22;19359;51.402;6.778;2024-03-02T16:52:15;13.20;1.00
7784;DHT22;19359;51.402;6.778;2024-03-02T16:54:42;13.20;1.00
7784;DHT22;19359;51.402;6.778;2024-03-02T16:57:09;13.30;1.00
7784;DHT22;19359;51.402;6.778;2024-03-02T17:02:04;13.20;1.00
7784;DHT22;19359;51.402;6.778;2024-03-02T17:04:32;13.10;1.00